sensor_id;sensor_type;location;lat;lon;timestamp;P1;durP1;ratioP1;P2;durP2;ratioP2
11039;SDS011;5573;49.592;8.662;2022-10-16T00:01:19;552.00;;;516.10;;
11039;SDS011;5573;49.592;8.662;2022-10-16T00:04:08;555.92;;;520.17;;
11039;SDS011;5573;49.592;8.662;2022-10-16T00:06:58;543.38;;;507.52;;
11039;SDS011;5573;49.592;8.662;2022-10-16T00:09:46;525.00;;;490.75;;
11039;SDS011;5573;49.592;8.662;2022-10-16T00:12:34;552.60;;;517.28;;
11039;SDS011;5573;49.592;8.662;2022-10-16T00:15:22;544.58;;;509.55;;
11039;SDS011;5573;49.592;8.662;2022-10-16T00:18:10;535.03;;;500.42;;
11039;SDS011;5573;49.592;8.662;2022-10-16T00:21:01;551.10;;;516.22;;
11039;SDS011;5573;49.592;8.662;2022-10-16T00:23:51;565.38;;;529.28;;
11039;SDS011;5573;49.592;8.662;2022-10-16T00:26:40;541.42;;;507.50;;
11039;SDS011;5573;49.592;8.662;2022-10-16T00:29:28;537.88;;;502.77;;
11039;SDS011;5573;49.592;8.662;2022-10-16T00:32:16;527.25;;;492.75;;
11039;SDS011;5573;49.592;8.662;2022-10-16T00:35:05;560.33;;;524.13;;
11039;SDS011;5573;49.592;8.662;2022-10-16T00:37:53;564.47;;;528.17;;
11039;SDS011;5573;49.592;8.662;2022-10-16T00:40:42;562.15;;;525.55;;
11039;SDS011;5573;49.592;8.662;2022-10-16T00:43:35;558.95;;;522.92;;
11039;SDS011;5573;49.592;8.662;2022-10-16T00:46:26;547.78;;;512.88;;
11039;SDS011;5573;49.592;8.662;2022-10-16T00:49:16;562.35;;;527.05;;
11039;SDS011;5573;49.592;8.662;2022-10-16T00:52:07;540.10;;;506.05;;
11039;SDS011;5573;49.592;8.662;2022-10-16T00:54:55;540.00;;;505.13;;
11039;SDS011;5573;49.592;8.662;2022-10-16T00:57:45;542.03;;;506.92;;
11039;SDS011;5573;49.592;8.662;2022-10-16T01:00:35;546.33;;;511.13;;
11039;SDS011;5573;49.592;8.662;2022-10-16T01:03:27;539.92;;;505.13;;
11039;SDS011;5573;49.592;8.662;2022-10-16T01:06:24;543.28;;;508.98;;
11039;SDS011;5573;49.592;8.662;2022-10-16T01:09:20;515.70;;;483.35;;
11039;SDS011;5573;49.592;8.662;2022-10-16T01:12:12;540.17;;;505.48;;
11039;SDS011;5573;49.592;8.662;2022-10-16T01:15:06;538.45;;;503.92;;
11039;SDS011;5573;49.592;8.662;2022-10-16T01:18:00;539.13;;;505.27;;
11039;SDS011;5573;49.592;8.662;2022-10-16T01:20:57;527.20;;;493.13;;
11039;SDS011;5573;49.592;8.662;2022-10-16T01:23:51;529.97;;;495.27;;
11039;SDS011;5573;49.592;8.662;2022-10-16T01:30:13;533.17;;;498.73;;
11039;SDS011;5573;49.592;8.662;2022-10-16T01:33:07;527.45;;;494.15;;
11039;SDS011;5573;49.592;8.662;2022-10-16T01:36:01;525.83;;;491.45;;
11039;SDS011;5573;49.592;8.662;2022-10-16T01:38:54;549.95;;;514.58;;
11039;SDS011;5573;49.592;8.662;2022-10-16T01:41:48;558.85;;;522.58;;
11039;SDS011;5573;49.592;8.662;2022-10-16T01:44:43;545.05;;;509.73;;
11039;SDS011;5573;49.592;8.662;2022-10-16T01:47:33;562.05;;;526.20;;
11039;SDS011;5573;49.592;8.662;2022-10-16T01:50:22;524.67;;;491.38;;
11039;SDS011;5573;49.592;8.662;2022-10-16T01:53:12;522.28;;;488.02;;
11039;SDS011;5573;49.592;8.662;2022-10-16T01:56:04;557.17;;;521.50;;
11039;SDS011;5573;49.592;8.662;2022-10-16T01:58:57;504.23;;;471.33;;
11039;SDS011;5573;49.592;8.662;2022-10-16T02:01:52;567.30;;;530.25;;
11039;SDS011;5573;49.592;8.662;2022-10-16T02:04:44;567.08;;;530.78;;
11039;SDS011;5573;49.592;8.662;2022-10-16T02:07:35;549.50;;;513.33;;
11039;SDS011;5573;49.592;8.662;2022-10-16T02:10:23;541.08;;;506.33;;
11039;SDS011;5573;49.592;8.662;2022-10-16T02:13:12;529.70;;;495.48;;
11039;SDS011;5573;49.592;8.662;2022-10-16T02:16:04;539.95;;;505.88;;
11039;SDS011;5573;49.592;8.662;2022-10-16T02:18:55;553.33;;;518.03;;
11039;SDS011;5573;49.592;8.662;2022-10-16T02:21:44;547.30;;;512.53;;
11039;SDS011;5573;49.592;8.662;2022-10-16T02:24:39;517.85;;;484.80;;
11039;SDS011;5573;49.592;8.662;2022-10-16T02:27:36;545.47;;;511.67;;
11039;SDS011;5573;49.592;8.662;2022-10-16T02:30:30;536.80;;;502.13;;
11039;SDS011;5573;49.592;8.662;2022-10-16T02:33:22;530.95;;;497.33;;
11039;SDS011;5573;49.592;8.662;2022-10-16T02:36:14;523.63;;;490.20;;
11039;SDS011;5573;49.592;8.662;2022-10-16T02:39:02;546.92;;;511.10;;
11039;SDS011;5573;49.592;8.662;2022-10-16T02:41:51;544.28;;;509.20;;
11039;SDS011;5573;49.592;8.662;2022-10-16T02:44:39;562.90;;;526.80;;
11039;SDS011;5573;49.592;8.662;2022-10-16T02:47:27;520.88;;;485.98;;
11039;SDS011;5573;49.592;8.662;2022-10-16T02:50:15;561.53;;;525.50;;
11039;SDS011;5573;49.592;8.662;2022-10-16T02:53:05;561.22;;;524.90;;
11039;SDS011;5573;49.592;8.662;2022-10-16T02:55:53;536.63;;;502.02;;
11039;SDS011;5573;49.592;8.662;2022-10-16T02:58:41;572.63;;;536.50;;
11039;SDS011;5573;49.592;8.662;2022-10-16T03:01:29;531.55;;;498.27;;
11039;SDS011;5573;49.592;8.662;2022-10-16T03:04:18;523.88;;;490.58;;
11039;SDS011;5573;49.592;8.662;2022-10-16T03:07:06;561.38;;;524.95;;
11039;SDS011;5573;49.592;8.662;2022-10-16T03:09:55;556.80;;;521.20;;
11039;SDS011;5573;49.592;8.662;2022-10-16T03:12:43;543.67;;;508.45;;
11039;SDS011;5573;49.592;8.662;2022-10-16T03:15:31;547.92;;;513.42;;
11039;SDS011;5573;49.592;8.662;2022-10-16T03:18:19;530.22;;;496.17;;
11039;SDS011;5573;49.592;8.662;2022-10-16T03:21:07;531.72;;;497.60;;
11039;SDS011;5573;49.592;8.662;2022-10-16T03:23:55;524.85;;;491.50;;
11039;SDS011;5573;49.592;8.662;2022-10-16T03:26:44;525.35;;;490.90;;
11039;SDS011;5573;49.592;8.662;2022-10-16T03:29:32;523.13;;;490.35;;
11039;SDS011;5573;49.592;8.662;2022-10-16T03:32:20;537.95;;;503.90;;
11039;SDS011;5573;49.592;8.662;2022-10-16T03:35:09;512.25;;;479.42;;
11039;SDS011;5573;49.592;8.662;2022-10-16T03:37:56;517.15;;;484.40;;
11039;SDS011;5573;49.592;8.662;2022-10-16T03:40:44;516.40;;;482.90;;
11039;SDS011;5573;49.592;8.662;2022-10-16T03:43:34;526.90;;;493.30;;
11039;SDS011;5573;49.592;8.662;2022-10-16T03:46:22;515.88;;;481.90;;
11039;SDS011;5573;49.592;8.662;2022-10-16T03:49:10;539.50;;;504.60;;
11039;SDS011;5573;49.592;8.662;2022-10-16T03:51:58;564.83;;;529.17;;
11039;SDS011;5573;49.592;8.662;2022-10-16T03:54:46;525.22;;;491.13;;
11039;SDS011;5573;49.592;8.662;2022-10-16T03:57:34;534.22;;;500.70;;
11039;SDS011;5573;49.592;8.662;2022-10-16T04:00:23;536.35;;;502.48;;
11039;SDS011;5573;49.592;8.662;2022-10-16T04:03:11;519.28;;;485.17;;
11039;SDS011;5573;49.592;8.662;2022-10-16T04:05:59;547.38;;;511.85;;
11039;SDS011;5573;49.592;8.662;2022-10-16T04:08:47;527.88;;;494.98;;
11039;SDS011;5573;49.592;8.662;2022-10-16T04:11:35;537.90;;;502.92;;
11039;SDS011;5573;49.592;8.662;2022-10-16T04:14:23;520.47;;;487.92;;
11039;SDS011;5573;49.592;8.662;2022-10-16T04:17:12;521.15;;;486.95;;
11039;SDS011;5573;49.592;8.662;2022-10-16T04:20:00;536.15;;;501.58;;
11039;SDS011;5573;49.592;8.662;2022-10-16T04:22:48;532.08;;;498.27;;
11039;SDS011;5573;49.592;8.662;2022-10-16T04:25:36;534.58;;;499.75;;
11039;SDS011;5573;49.592;8.662;2022-10-16T04:28:24;539.28;;;504.60;;
11039;SDS011;5573;49.592;8.662;2022-10-16T04:31:13;527.30;;;493.33;;
11039;SDS011;5573;49.592;8.662;2022-10-16T04:34:02;546.33;;;511.83;;
11039;SDS011;5573;49.592;8.662;2022-10-16T04:36:50;531.97;;;497.98;;
11039;SDS011;5573;49.592;8.662;2022-10-16T04:39:38;513.40;;;481.10;;
11039;SDS011;5573;49.592;8.662;2022-10-16T04:42:25;526.53;;;493.48;;
11039;SDS011;5573;49.592;8.662;2022-10-16T04:45:13;535.67;;;500.67;;
11039;SDS011;5573;49.592;8.662;2022-10-16T04:48:03;546.47;;;510.98;;
11039;SDS011;5573;49.592;8.662;2022-10-16T04:50:52;520.67;;;487.63;;
11039;SDS011;5573;49.592;8.662;2022-10-16T04:53:40;512.70;;;480.25;;
11039;SDS011;5573;49.592;8.662;2022-10-16T04:56:28;533.90;;;500.02;;
11039;SDS011;5573;49.592;8.662;2022-10-16T04:59:16;542.90;;;508.27;;
11039;SDS011;5573;49.592;8.662;2022-10-16T05:02:05;532.30;;;497.52;;
11039;SDS011;5573;49.592;8.662;2022-10-16T05:04:53;540.58;;;506.80;;
11039;SDS011;5573;49.592;8.662;2022-10-16T05:07:42;523.50;;;489.45;;
11039;SDS011;5573;49.592;8.662;2022-10-16T05:10:30;538.97;;;504.52;;
11039;SDS011;5573;49.592;8.662;2022-10-16T05:13:18;538.55;;;505.02;;
11039;SDS011;5573;49.592;8.662;2022-10-16T05:16:06;523.03;;;489.95;;
11039;SDS011;5573;49.592;8.662;2022-10-16T05:18:54;516.03;;;483.35;;
11039;SDS011;5573;49.592;8.662;2022-10-16T05:22:02;539.42;;;505.50;;
11039;SDS011;5573;49.592;8.662;2022-10-16T05:24:52;526.47;;;492.92;;
11039;SDS011;5573;49.592;8.662;2022-10-16T05:27:40;524.95;;;490.83;;
11039;SDS011;5573;49.592;8.662;2022-10-16T05:30:28;525.50;;;491.45;;
11039;SDS011;5573;49.592;8.662;2022-10-16T05:33:16;512.97;;;479.38;;
11039;SDS011;5573;49.592;8.662;2022-10-16T05:36:04;520.45;;;486.40;;
11039;SDS011;5573;49.592;8.662;2022-10-16T05:38:54;542.85;;;508.70;;
11039;SDS011;5573;49.592;8.662;2022-10-16T05:41:43;549.75;;;514.67;;
11039;SDS011;5573;49.592;8.662;2022-10-16T05:44:32;519.42;;;487.52;;
11039;SDS011;5573;49.592;8.662;2022-10-16T05:47:24;499.45;;;468.90;;
11039;SDS011;5573;49.592;8.662;2022-10-16T05:50:13;529.38;;;495.40;;
11039;SDS011;5573;49.592;8.662;2022-10-16T05:53:01;501.77;;;469.42;;
11039;SDS011;5573;49.592;8.662;2022-10-16T05:55:51;533.88;;;499.38;;
11039;SDS011;5573;49.592;8.662;2022-10-16T05:58:41;537.03;;;502.42;;
11039;SDS011;5573;49.592;8.662;2022-10-16T06:01:30;560.90;;;524.47;;
11039;SDS011;5573;49.592;8.662;2022-10-16T06:03:59;544.63;;;509.83;;
11039;SDS011;5573;49.592;8.662;2022-10-16T06:06:27;540.25;;;505.40;;
11039;SDS011;5573;49.592;8.662;2022-10-16T06:08:56;535.17;;;500.73;;
11039;SDS011;5573;49.592;8.662;2022-10-16T06:11:27;536.65;;;502.77;;
11039;SDS011;5573;49.592;8.662;2022-10-16T06:13:58;520.47;;;488.10;;
11039;SDS011;5573;49.592;8.662;2022-10-16T06:16:29;529.22;;;495.38;;
11039;SDS011;5573;49.592;8.662;2022-10-16T06:18:57;536.10;;;502.25;;
11039;SDS011;5573;49.592;8.662;2022-10-16T06:21:26;519.75;;;486.05;;
11039;SDS011;5573;49.592;8.662;2022-10-16T06:23:55;517.67;;;484.85;;
11039;SDS011;5573;49.592;8.662;2022-10-16T06:26:24;521.05;;;488.20;;
11039;SDS011;5573;49.592;8.662;2022-10-16T06:28:54;523.75;;;490.35;;
11039;SDS011;5573;49.592;8.662;2022-10-16T06:31:24;525.47;;;491.52;;
11039;SDS011;5573;49.592;8.662;2022-10-16T06:33:55;528.70;;;494.85;;
11039;SDS011;5573;49.592;8.662;2022-10-16T06:36:23;514.03;;;480.35;;
11039;SDS011;5573;49.592;8.662;2022-10-16T06:38:51;540.50;;;505.45;;
11039;SDS011;5573;49.592;8.662;2022-10-16T06:41:20;535.50;;;501.73;;
11039;SDS011;5573;49.592;8.662;2022-10-16T06:43:49;556.38;;;520.47;;
11039;SDS011;5573;49.592;8.662;2022-10-16T06:46:17;529.55;;;496.15;;
11039;SDS011;5573;49.592;8.662;2022-10-16T06:48:48;530.42;;;495.95;;
11039;SDS011;5573;49.592;8.662;2022-10-16T06:51:16;546.35;;;510.15;;
11039;SDS011;5573;49.592;8.662;2022-10-16T06:53:46;548.83;;;513.97;;
11039;SDS011;5573;49.592;8.662;2022-10-16T06:56:31;548.08;;;512.72;;
11039;SDS011;5573;49.592;8.662;2022-10-16T06:59:00;543.40;;;508.85;;
11039;SDS011;5573;49.592;8.662;2022-10-16T07:01:28;557.35;;;521.10;;
11039;SDS011;5573;49.592;8.662;2022-10-16T07:03:57;511.10;;;477.10;;
11039;SDS011;5573;49.592;8.662;2022-10-16T07:06:26;522.00;;;487.65;;
11039;SDS011;5573;49.592;8.662;2022-10-16T07:08:54;530.25;;;495.90;;
11039;SDS011;5573;49.592;8.662;2022-10-16T07:11:22;542.90;;;507.90;;
11039;SDS011;5573;49.592;8.662;2022-10-16T07:13:51;522.80;;;489.75;;
11039;SDS011;5573;49.592;8.662;2022-10-16T07:16:22;515.67;;;483.33;;
11039;SDS011;5573;49.592;8.662;2022-10-16T07:18:52;524.90;;;491.92;;
11039;SDS011;5573;49.592;8.662;2022-10-16T07:21:26;534.22;;;500.15;;
11039;SDS011;5573;49.592;8.662;2022-10-16T07:23:56;545.00;;;509.88;;
11039;SDS011;5573;49.592;8.662;2022-10-16T07:26:26;537.42;;;503.17;;
11039;SDS011;5573;49.592;8.662;2022-10-16T07:28:56;523.72;;;489.02;;
11039;SDS011;5573;49.592;8.662;2022-10-16T07:31:24;531.53;;;496.98;;
11039;SDS011;5573;49.592;8.662;2022-10-16T07:33:52;553.95;;;517.70;;
11039;SDS011;5573;49.592;8.662;2022-10-16T07:36:21;571.42;;;534.63;;
11039;SDS011;5573;49.592;8.662;2022-10-16T07:38:50;529.63;;;494.05;;
11039;SDS011;5573;49.592;8.662;2022-10-16T07:41:24;542.05;;;506.00;;
11039;SDS011;5573;49.592;8.662;2022-10-16T07:43:52;568.55;;;533.00;;
11039;SDS011;5573;49.592;8.662;2022-10-16T07:46:21;531.35;;;496.85;;
11039;SDS011;5573;49.592;8.662;2022-10-16T07:48:50;544.90;;;509.60;;
11039;SDS011;5573;49.592;8.662;2022-10-16T07:51:19;575.88;;;537.67;;
11039;SDS011;5573;49.592;8.662;2022-10-16T07:53:47;538.85;;;504.52;;
11039;SDS011;5573;49.592;8.662;2022-10-16T07:56:17;570.40;;;533.72;;
11039;SDS011;5573;49.592;8.662;2022-10-16T07:58:46;550.22;;;514.50;;
11039;SDS011;5573;49.592;8.662;2022-10-16T08:01:16;538.67;;;503.67;;
11039;SDS011;5573;49.592;8.662;2022-10-16T08:03:45;564.20;;;527.50;;
11039;SDS011;5573;49.592;8.662;2022-10-16T08:06:14;544.55;;;508.88;;
11039;SDS011;5573;49.592;8.662;2022-10-16T08:08:42;565.55;;;528.65;;
11039;SDS011;5573;49.592;8.662;2022-10-16T08:11:10;567.63;;;531.22;;
11039;SDS011;5573;49.592;8.662;2022-10-16T08:13:39;562.20;;;525.17;;
11039;SDS011;5573;49.592;8.662;2022-10-16T08:16:06;533.00;;;498.23;;
11039;SDS011;5573;49.592;8.662;2022-10-16T08:18:36;546.00;;;510.23;;
11039;SDS011;5573;49.592;8.662;2022-10-16T08:21:05;566.40;;;529.40;;
11039;SDS011;5573;49.592;8.662;2022-10-16T08:23:33;565.13;;;528.60;;
11039;SDS011;5573;49.592;8.662;2022-10-16T08:26:02;560.08;;;523.47;;
11039;SDS011;5573;49.592;8.662;2022-10-16T08:28:32;554.42;;;518.00;;
11039;SDS011;5573;49.592;8.662;2022-10-16T08:31:06;564.35;;;528.08;;
11039;SDS011;5573;49.592;8.662;2022-10-16T08:33:35;568.00;;;532.90;;
11039;SDS011;5573;49.592;8.662;2022-10-16T08:36:03;573.97;;;535.97;;
11039;SDS011;5573;49.592;8.662;2022-10-16T08:38:32;588.88;;;551.08;;
11039;SDS011;5573;49.592;8.662;2022-10-16T08:41:03;598.70;;;559.47;;
11039;SDS011;5573;49.592;8.662;2022-10-16T08:43:53;593.15;;;554.08;;
11039;SDS011;5573;49.592;8.662;2022-10-16T08:46:35;566.15;;;529.55;;
11039;SDS011;5573;49.592;8.662;2022-10-16T08:49:16;601.47;;;562.78;;
11039;SDS011;5573;49.592;8.662;2022-10-16T08:51:44;577.17;;;538.97;;
11039;SDS011;5573;49.592;8.662;2022-10-16T08:54:15;597.25;;;559.13;;
11039;SDS011;5573;49.592;8.662;2022-10-16T08:56:50;609.45;;;569.33;;
11039;SDS011;5573;49.592;8.662;2022-10-16T08:59:17;582.58;;;544.65;;
11039;SDS011;5573;49.592;8.662;2022-10-16T09:01:49;599.42;;;559.88;;
11039;SDS011;5573;49.592;8.662;2022-10-16T09:04:27;579.80;;;542.40;;
11039;SDS011;5573;49.592;8.662;2022-10-16T09:07:12;571.42;;;534.83;;
11039;SDS011;5573;49.592;8.662;2022-10-16T09:09:49;570.72;;;534.15;;
11039;SDS011;5573;49.592;8.662;2022-10-16T09:12:26;585.55;;;547.97;;
11039;SDS011;5573;49.592;8.662;2022-10-16T09:15:00;595.80;;;557.20;;
11039;SDS011;5573;49.592;8.662;2022-10-16T09:17:41;601.47;;;561.35;;
11039;SDS011;5573;49.592;8.662;2022-10-16T09:20:25;583.33;;;545.58;;
11039;SDS011;5573;49.592;8.662;2022-10-16T09:23:00;583.10;;;545.33;;
11039;SDS011;5573;49.592;8.662;2022-10-16T09:25:41;605.20;;;566.00;;
11039;SDS011;5573;49.592;8.662;2022-10-16T09:28:11;577.40;;;539.65;;
11039;SDS011;5573;49.592;8.662;2022-10-16T09:30:39;614.85;;;574.88;;
11039;SDS011;5573;49.592;8.662;2022-10-16T09:33:09;590.42;;;551.25;;
11039;SDS011;5573;49.592;8.662;2022-10-16T09:35:39;598.60;;;559.38;;
11039;SDS011;5573;49.592;8.662;2022-10-16T09:38:09;592.60;;;554.47;;
11039;SDS011;5573;49.592;8.662;2022-10-16T09:40:48;595.10;;;556.80;;
11039;SDS011;5573;49.592;8.662;2022-10-16T09:43:28;610.65;;;570.70;;
11039;SDS011;5573;49.592;8.662;2022-10-16T09:46:02;604.00;;;564.60;;
11039;SDS011;5573;49.592;8.662;2022-10-16T09:48:33;600.85;;;559.88;;
11039;SDS011;5573;49.592;8.662;2022-10-16T09:51:05;593.90;;;554.20;;
11039;SDS011;5573;49.592;8.662;2022-10-16T09:53:38;638.50;;;597.53;;
11039;SDS011;5573;49.592;8.662;2022-10-16T09:56:09;633.38;;;592.00;;
11039;SDS011;5573;49.592;8.662;2022-10-16T09:58:43;619.78;;;579.47;;
11039;SDS011;5573;49.592;8.662;2022-10-16T10:01:12;610.55;;;570.55;;
11039;SDS011;5573;49.592;8.662;2022-10-16T10:03:43;592.60;;;552.92;;
11039;SDS011;5573;49.592;8.662;2022-10-16T10:06:16;598.80;;;559.42;;
11039;SDS011;5573;49.592;8.662;2022-10-16T10:08:55;576.67;;;538.80;;
11039;SDS011;5573;49.592;8.662;2022-10-16T10:11:44;600.17;;;559.95;;
11039;SDS011;5573;49.592;8.662;2022-10-16T10:14:17;586.97;;;548.45;;
11039;SDS011;5573;49.592;8.662;2022-10-16T10:16:47;616.50;;;574.88;;
11039;SDS011;5573;49.592;8.662;2022-10-16T10:19:17;576.17;;;536.17;;
11039;SDS011;5573;49.592;8.662;2022-10-16T10:21:46;601.90;;;562.15;;
11039;SDS011;5573;49.592;8.662;2022-10-16T10:24:14;610.83;;;569.75;;
11039;SDS011;5573;49.592;8.662;2022-10-16T10:26:45;633.50;;;590.47;;
11039;SDS011;5573;49.592;8.662;2022-10-16T10:29:20;618.05;;;575.88;;
11039;SDS011;5573;49.592;8.662;2022-10-16T10:31:58;619.05;;;577.80;;
11039;SDS011;5573;49.592;8.662;2022-10-16T10:34:38;628.85;;;586.88;;
11039;SDS011;5573;49.592;8.662;2022-10-16T10:37:25;630.15;;;587.40;;
11039;SDS011;5573;49.592;8.662;2022-10-16T10:40:02;609.50;;;568.58;;
11039;SDS011;5573;49.592;8.662;2022-10-16T10:42:40;578.33;;;539.92;;
11039;SDS011;5573;49.592;8.662;2022-10-16T10:45:17;582.97;;;543.92;;
11039;SDS011;5573;49.592;8.662;2022-10-16T10:47:53;579.72;;;541.97;;
11039;SDS011;5573;49.592;8.662;2022-10-16T10:50:33;572.05;;;534.58;;
11039;SDS011;5573;49.592;8.662;2022-10-16T10:53:09;562.95;;;527.13;;
11039;SDS011;5573;49.592;8.662;2022-10-16T10:55:46;559.80;;;523.50;;
11039;SDS011;5573;49.592;8.662;2022-10-16T10:58:29;559.85;;;523.92;;
11039;SDS011;5573;49.592;8.662;2022-10-16T11:01:17;553.85;;;518.67;;
11039;SDS011;5573;49.592;8.662;2022-10-16T11:03:59;588.85;;;552.85;;
11039;SDS011;5573;49.592;8.662;2022-10-16T11:06:40;555.15;;;520.38;;
11039;SDS011;5573;49.592;8.662;2022-10-16T11:09:13;567.28;;;530.63;;
11039;SDS011;5573;49.592;8.662;2022-10-16T11:11:45;564.17;;;528.08;;
11039;SDS011;5573;49.592;8.662;2022-10-16T11:14:17;552.20;;;515.97;;
11039;SDS011;5573;49.592;8.662;2022-10-16T11:16:48;589.40;;;552.45;;
11039;SDS011;5573;49.592;8.662;2022-10-16T11:19:24;549.80;;;514.20;;
11039;SDS011;5573;49.592;8.662;2022-10-16T11:22:03;577.70;;;540.55;;
11039;SDS011;5573;49.592;8.662;2022-10-16T11:24:39;565.15;;;530.35;;
11039;SDS011;5573;49.592;8.662;2022-10-16T11:27:15;590.65;;;553.13;;
11039;SDS011;5573;49.592;8.662;2022-10-16T11:29:51;596.85;;;559.03;;
11039;SDS011;5573;49.592;8.662;2022-10-16T11:32:24;594.15;;;555.53;;
11039;SDS011;5573;49.592;8.662;2022-10-16T11:34:57;587.65;;;549.60;;
11039;SDS011;5573;49.592;8.662;2022-10-16T11:37:31;582.33;;;545.35;;
11039;SDS011;5573;49.592;8.662;2022-10-16T11:40:09;594.22;;;557.50;;
11039;SDS011;5573;49.592;8.662;2022-10-16T11:42:48;554.95;;;520.92;;
11039;SDS011;5573;49.592;8.662;2022-10-16T11:45:24;531.90;;;499.23;;
11039;SDS011;5573;49.592;8.662;2022-10-16T11:47:58;542.70;;;510.50;;
11039;SDS011;5573;49.592;8.662;2022-10-16T11:50:34;565.30;;;530.25;;
11039;SDS011;5573;49.592;8.662;2022-10-16T11:53:11;568.03;;;533.05;;
11039;SDS011;5573;49.592;8.662;2022-10-16T11:55:45;570.67;;;534.90;;
11039;SDS011;5573;49.592;8.662;2022-10-16T11:58:15;549.85;;;516.65;;
11039;SDS011;5573;49.592;8.662;2022-10-16T12:00:52;532.25;;;499.33;;
11039;SDS011;5573;49.592;8.662;2022-10-16T12:03:28;557.45;;;523.78;;
11039;SDS011;5573;49.592;8.662;2022-10-16T12:06:15;562.65;;;528.58;;
11039;SDS011;5573;49.592;8.662;2022-10-16T12:08:54;550.22;;;517.40;;
11039;SDS011;5573;49.592;8.662;2022-10-16T12:11:30;588.65;;;552.88;;
11039;SDS011;5573;49.592;8.662;2022-10-16T12:14:04;559.70;;;526.13;;
11039;SDS011;5573;49.592;8.662;2022-10-16T12:16:36;602.72;;;565.33;;
11039;SDS011;5573;49.592;8.662;2022-10-16T12:19:12;575.17;;;540.13;;
11039;SDS011;5573;49.592;8.662;2022-10-16T12:21:41;601.88;;;566.08;;
11039;SDS011;5573;49.592;8.662;2022-10-16T12:24:20;597.95;;;560.25;;
11039;SDS011;5573;49.592;8.662;2022-10-16T12:26:54;592.00;;;556.15;;
11039;SDS011;5573;49.592;8.662;2022-10-16T12:29:23;576.47;;;541.20;;
11039;SDS011;5573;49.592;8.662;2022-10-16T12:31:57;594.85;;;558.65;;
11039;SDS011;5573;49.592;8.662;2022-10-16T12:34:26;606.25;;;567.88;;
11039;SDS011;5573;49.592;8.662;2022-10-16T12:36:56;595.28;;;559.10;;
11039;SDS011;5573;49.592;8.662;2022-10-16T12:39:38;597.15;;;560.38;;
11039;SDS011;5573;49.592;8.662;2022-10-16T12:42:19;583.63;;;547.38;;
11039;SDS011;5573;49.592;8.662;2022-10-16T12:45:01;592.00;;;555.25;;
11039;SDS011;5573;49.592;8.662;2022-10-16T12:47:36;591.38;;;555.33;;
11039;SDS011;5573;49.592;8.662;2022-10-16T12:50:24;580.88;;;545.55;;
11039;SDS011;5573;49.592;8.662;2022-10-16T12:52:54;572.72;;;537.40;;
11039;SDS011;5573;49.592;8.662;2022-10-16T12:55:23;584.00;;;548.45;;
11039;SDS011;5573;49.592;8.662;2022-10-16T12:58:00;572.28;;;537.67;;
11039;SDS011;5573;49.592;8.662;2022-10-16T13:00:40;584.25;;;548.45;;
11039;SDS011;5573;49.592;8.662;2022-10-16T13:03:25;570.08;;;534.17;;
11039;SDS011;5573;49.592;8.662;2022-10-16T13:06:11;581.42;;;544.47;;
11039;SDS011;5573;49.592;8.662;2022-10-16T13:08:59;571.58;;;537.63;;
11039;SDS011;5573;49.592;8.662;2022-10-16T13:12:02;570.38;;;535.70;;
11039;SDS011;5573;49.592;8.662;2022-10-16T13:14:51;578.20;;;543.28;;
11039;SDS011;5573;49.592;8.662;2022-10-16T13:17:30;599.00;;;561.20;;
11039;SDS011;5573;49.592;8.662;2022-10-16T13:20:09;618.08;;;579.42;;
11039;SDS011;5573;49.592;8.662;2022-10-16T13:22:47;601.15;;;563.40;;
11039;SDS011;5573;49.592;8.662;2022-10-16T13:25:25;618.17;;;579.00;;
11039;SDS011;5573;49.592;8.662;2022-10-16T13:28:00;585.78;;;549.75;;
11039;SDS011;5573;49.592;8.662;2022-10-16T13:30:29;599.40;;;562.67;;
11039;SDS011;5573;49.592;8.662;2022-10-16T13:33:00;578.60;;;541.83;;
11039;SDS011;5573;49.592;8.662;2022-10-16T13:35:30;564.95;;;530.50;;
11039;SDS011;5573;49.592;8.662;2022-10-16T13:38:08;579.45;;;543.78;;
11039;SDS011;5573;49.592;8.662;2022-10-16T13:40:50;589.55;;;552.63;;
11039;SDS011;5573;49.592;8.662;2022-10-16T13:43:22;582.30;;;546.33;;
11039;SDS011;5573;49.592;8.662;2022-10-16T13:45:56;564.03;;;528.83;;
11039;SDS011;5573;49.592;8.662;2022-10-16T13:48:26;597.38;;;560.15;;
11039;SDS011;5573;49.592;8.662;2022-10-16T13:51:04;597.78;;;559.08;;
11039;SDS011;5573;49.592;8.662;2022-10-16T13:53:33;588.15;;;550.55;;
11039;SDS011;5573;49.592;8.662;2022-10-16T13:56:03;585.63;;;548.00;;
11039;SDS011;5573;49.592;8.662;2022-10-16T13:58:34;607.90;;;568.38;;
11039;SDS011;5573;49.592;8.662;2022-10-16T14:01:02;613.25;;;573.88;;
11039;SDS011;5573;49.592;8.662;2022-10-16T14:03:33;630.78;;;590.40;;
11039;SDS011;5573;49.592;8.662;2022-10-16T14:06:02;605.53;;;566.08;;
11039;SDS011;5573;49.592;8.662;2022-10-16T14:08:35;610.83;;;571.65;;
11039;SDS011;5573;49.592;8.662;2022-10-16T14:11:02;631.67;;;590.33;;
11039;SDS011;5573;49.592;8.662;2022-10-16T14:13:31;622.67;;;581.97;;
11039;SDS011;5573;49.592;8.662;2022-10-16T14:16:05;614.38;;;573.88;;
11039;SDS011;5573;49.592;8.662;2022-10-16T14:18:35;617.28;;;576.67;;
11039;SDS011;5573;49.592;8.662;2022-10-16T14:21:06;622.05;;;581.85;;
11039;SDS011;5573;49.592;8.662;2022-10-16T14:23:39;598.50;;;559.80;;
11039;SDS011;5573;49.592;8.662;2022-10-16T14:26:12;622.75;;;582.22;;
11039;SDS011;5573;49.592;8.662;2022-10-16T14:28:44;620.42;;;579.92;;
11039;SDS011;5573;49.592;8.662;2022-10-16T14:31:26;608.95;;;568.17;;
11039;SDS011;5573;49.592;8.662;2022-10-16T14:33:58;612.20;;;572.53;;
11039;SDS011;5573;49.592;8.662;2022-10-16T14:36:27;597.75;;;559.58;;
11039;SDS011;5573;49.592;8.662;2022-10-16T14:38:57;599.67;;;561.10;;
11039;SDS011;5573;49.592;8.662;2022-10-16T14:41:28;588.95;;;550.78;;
11039;SDS011;5573;49.592;8.662;2022-10-16T14:44:00;592.10;;;553.47;;
11039;SDS011;5573;49.592;8.662;2022-10-16T14:46:31;567.47;;;530.00;;
11039;SDS011;5573;49.592;8.662;2022-10-16T14:49:15;582.78;;;545.50;;
11039;SDS011;5573;49.592;8.662;2022-10-16T14:51:46;585.72;;;548.13;;
11039;SDS011;5573;49.592;8.662;2022-10-16T14:54:15;544.72;;;509.58;;
11039;SDS011;5573;49.592;8.662;2022-10-16T14:56:47;588.22;;;550.28;;
11039;SDS011;5573;49.592;8.662;2022-10-16T14:59:19;571.22;;;535.13;;
11039;SDS011;5573;49.592;8.662;2022-10-16T15:01:52;564.83;;;527.42;;
11039;SDS011;5573;49.592;8.662;2022-10-16T15:04:19;577.85;;;540.65;;
11039;SDS011;5573;49.592;8.662;2022-10-16T15:06:47;561.00;;;525.70;;
11039;SDS011;5573;49.592;8.662;2022-10-16T15:09:15;572.08;;;535.30;;
11039;SDS011;5573;49.592;8.662;2022-10-16T15:11:43;561.30;;;524.95;;
11039;SDS011;5573;49.592;8.662;2022-10-16T15:14:11;539.90;;;504.58;;
11039;SDS011;5573;49.592;8.662;2022-10-16T15:16:46;585.15;;;547.40;;
11039;SDS011;5573;49.592;8.662;2022-10-16T15:19:14;562.20;;;526.08;;
11039;SDS011;5573;49.592;8.662;2022-10-16T15:21:41;556.85;;;519.97;;